Terminal Aerodrome Forecast
Issued by NWS

Home | Current Version | Previous Version | Text Only | Print | Product List | Glossary On
Versions: 1 2 3 4 5 6 7 8 9 10 11 12 13 14 15 16 17 18 19 20 21 22 23 24 25 26 27 28 29 30 31 32
000
FTUS41 KBOX 250535
TAFBAF
TAF
KBAF 250535Z 2506/2606 18004KT P6SM BKN150
     FM251600 20010KT P6SM BKN100
     FM252000 20011G21KT P6SM BKN060
     FM260000 18010KT P6SM SCT150
     FM260200 19009KT P6SM BKN110=

USA.gov is the U.S. government's official web portal to all federal, state and local government web resources and services.